TFM - Tactical Decision Aid
ID: Runway Winds: CIG/VIS Threshold:

KHBG - Hattiesburg/Chain Mu, MS, US

Updated at: 0945 UTC 07 Dec 2022
Latest TAF at: 0912 UTC 07 Dec 2022

TAF Board

Time0933Z 07/10Z 07/11Z 07/12Z 07/13Z 07/14Z 07/15Z 07/16Z 07/17Z 07/18Z 07/19Z 07/20Z 07/21Z 07/22Z>>
Type OBS PRVL PRVL
  [TEMP]  
PRVL
  [TEMP]  
PRVL PRVL PRVL PRVL PRVL PRVL PRVL PRVL PRVL PRVL
VIS 8 5 0.75
  [0.5]  
0.75
  [0.5]  
0.75 >6 >6 >6 >6 >6 >6 >6 >6 >6
CIG 4 6 2
  [1]  
2
  [1]  
2 7 7 15 15 15 15 -- -- --
Cover OVC OVC OVC
  [OVC]  
OVC
  [OVC]  
OVC OVC OVC BKN BKN BKN BKN SCT SCT SCT
FltCat LIFR IFR LIFR
  [LIFR]  
LIFR
  [LIFR]  
LIFR IFR IFR MVFR MVFR MVFR MVFR VFR VFR VFR
WX -- BR BR
  [FG]  
BR
  [FG]  
BR -- -- -- -- -- -- -- -- --
WDir 200 VRB VRB
[VRB]
VRB
[VRB]
VRB 200 200 190 190 190 190 210 210 210
WSpd 3 0 0
  [0]  
0
  [0]  
0 3 3 4 4 4 4 6 6 6
WGst -- -- --
  [--]  
--
  [--]  
-- -- -- -- -- -- -- -- -- --
WSHgt -- -- --
[--]
--
[--]
-- -- -- -- -- -- -- -- -- --
WSDir -- -- --
[--]
--
[--]
-- -- -- -- -- -- -- -- -- --
WSSpd -- -- --
[--]
--
[--]
-- -- -- -- -- -- -- -- -- --

TDA Impact Legend

  None Marginal Slight Moderate High
Visibility (sm) >5 3≤X≤5 2≤X<3 0.75≤X<2 <0.75
Ceiling (100 ft) >30 10≤X≤30 8≤X<10 2≤X<8 <2
Wind Speed (kt) <15 15≤X<25 25≤X<30 ≥30
Wind Gust (kt) <15 15≤X<25 25≤X<35 ≥35
Weather No Wx Reported VCTS -TS,-FZRA TS,FZRA +TS,+FZRA
TAF
KHBG 070912Z 0709/0806 00000KT 5SM BR OVC006
  FM071100 00000KT 3/4SM BR OVC002
  TEMPO 0711/0713 1/2SM FG OVC001
  FM071400 20003KT P6SM OVC007
  FM071600 19004KT P6SM BKN015
  FM072000 21006KT P6SM SCT060


METAR
KHBG 070933Z AUTO 20003KT 8SM OVC004 20/19 A3023 RMK AO2 T02000194
KHBG 070853Z AUTO 00000KT 10SM OVC006 19/19 A3022 RMK AO2 SLP229 T01940189 53008
KHBG 070821Z AUTO 15003KT 9SM BKN006 18/18 A3020 RMK AO2 T01830183
KHBG 070806Z AUTO 15003KT 10SM FEW006 SCT023 19/18 A3020 RMK AO2 T01890183
KHBG 070753Z AUTO 15003KT 9SM FEW016 SCT023 19/18 A3020 RMK AO2 SLP223 T01890183
KHBG 070748Z AUTO 16003KT 10SM SCT016 SCT023 19/19 A3020 RMK AO2
KHBG 070733Z AUTO 15004KT 10SM BKN017 19/18 A3020 RMK AO2 T01890183
KHBG 070653Z AUTO 14004KT 10SM CLR 19/18 A3019 RMK AO2 SLP221 T01890183

Radar Display
Forecast Discussion